sensor_id;sensor_type;location;lat;lon;timestamp;pressure;altitude;pressure_sealevel;temperature;humidity
38718;BME280;24468;52.128;9.278;2023-04-03T00:01:32;102196.47;;;2.58;100.00
38718;BME280;24468;52.128;9.278;2023-04-03T00:03:57;102196.47;;;2.59;100.00
38718;BME280;24468;52.128;9.278;2023-04-03T00:06:24;102200.78;;;2.50;100.00
38718;BME280;24468;52.128;9.278;2023-04-03T00:08:50;102209.59;;;2.45;100.00
38718;BME280;24468;52.128;9.278;2023-04-03T00:11:17;102218.38;;;2.40;100.00
38718;BME280;24468;52.128;9.278;2023-04-03T00:13:43;102206.16;;;2.53;100.00
38718;BME280;24468;52.128;9.278;2023-04-03T00:16:11;102213.34;;;2.58;100.00
38718;BME280;24468;52.128;9.278;2023-04-03T00:18:38;102217.78;;;2.58;100.00
38718;BME280;24468;52.128;9.278;2023-04-03T00:21:04;102214.06;;;2.48;100.00
38718;BME280;24468;52.128;9.278;2023-04-03T00:23:30;102220.16;;;2.41;100.00
38718;BME280;24468;52.128;9.278;2023-04-03T00:25:56;102219.97;;;2.29;100.00
38718;BME280;24468;52.128;9.278;2023-04-03T00:28:22;102231.78;;;2.44;100.00
38718;BME280;24468;52.128;9.278;2023-04-03T00:30:51;102230.78;;;2.38;100.00
38718;BME280;24468;52.128;9.278;2023-04-03T00:33:17;102228.06;;;2.35;100.00
38718;BME280;24468;52.128;9.278;2023-04-03T00:35:42;102227.31;;;2.43;100.00
38718;BME280;24468;52.128;9.278;2023-04-03T00:38:08;102231.97;;;2.57;100.00
38718;BME280;24468;52.128;9.278;2023-04-03T00:40:37;102226.94;;;2.20;100.00
38718;BME280;24468;52.128;9.278;2023-04-03T00:43:17;102227.97;;;2.30;100.00
38718;BME280;24468;52.128;9.278;2023-04-03T00:45:47;102236.09;;;2.36;100.00
38718;BME280;24468;52.128;9.278;2023-04-03T00:48:22;102232.53;;;2.37;100.00
38718;BME280;24468;52.128;9.278;2023-04-03T00:50:48;102231.31;;;2.17;100.00
38718;BME280;24468;52.128;9.278;2023-04-03T00:53:21;102231.03;;;2.02;100.00
38718;BME280;24468;52.128;9.278;2023-04-03T00:55:49;102234.50;;;1.96;100.00
38718;BME280;24468;52.128;9.278;2023-04-03T00:58:18;102241.44;;;1.88;100.00
38718;BME280;24468;52.128;9.278;2023-04-03T01:00:48;102239.41;;;2.25;100.00
38718;BME280;24468;52.128;9.278;2023-04-03T01:03:16;102239.38;;;2.20;100.00
38718;BME280;24468;52.128;9.278;2023-04-03T01:05:42;102232.31;;;2.23;100.00
38718;BME280;24468;52.128;9.278;2023-04-03T01:08:08;102238.41;;;2.16;100.00
38718;BME280;24468;52.128;9.278;2023-04-03T01:10:33;102246.47;;;2.19;100.00
38718;BME280;24468;52.128;9.278;2023-04-03T01:12:59;102240.44;;;2.33;100.00
38718;BME280;24468;52.128;9.278;2023-04-03T01:15:27;102238.75;;;2.38;100.00
38718;BME280;24468;52.128;9.278;2023-04-03T01:17:57;102231.03;;;2.53;100.00
38718;BME280;24468;52.128;9.278;2023-04-03T01:20:57;102241.44;;;2.38;100.00
38718;BME280;24468;52.128;9.278;2023-04-03T01:26:35;102246.59;;;2.29;100.00
38718;BME280;24468;52.128;9.278;2023-04-03T01:29:01;102240.41;;;2.30;100.00
38718;BME280;24468;52.128;9.278;2023-04-03T01:34:01;102245.28;;;2.05;100.00
38718;BME280;24468;52.128;9.278;2023-04-03T01:36:30;102254.50;;;2.24;100.00
38718;BME280;24468;52.128;9.278;2023-04-03T01:38:58;102245.91;;;2.40;100.00
38718;BME280;24468;52.128;9.278;2023-04-03T01:41:25;102250.38;;;2.41;100.00
38718;BME280;24468;52.128;9.278;2023-04-03T01:43:51;102256.69;;;2.48;100.00
38718;BME280;24468;52.128;9.278;2023-04-03T01:46:18;102243.28;;;2.42;100.00
38718;BME280;24468;52.128;9.278;2023-04-03T01:48:45;102243.31;;;2.45;100.00
38718;BME280;24468;52.128;9.278;2023-04-03T01:51:10;102246.75;;;2.38;100.00
38718;BME280;24468;52.128;9.278;2023-04-03T01:53:36;102240.41;;;2.30;100.00
38718;BME280;24468;52.128;9.278;2023-04-03T01:56:01;102240.50;;;2.34;100.00
38718;BME280;24468;52.128;9.278;2023-04-03T01:58:27;102246.75;;;2.36;100.00
38718;BME280;24468;52.128;9.278;2023-04-03T02:00:52;102253.75;;;2.33;100.00
38718;BME280;24468;52.128;9.278;2023-04-03T02:03:18;102250.16;;;2.28;100.00
38718;BME280;24468;52.128;9.278;2023-04-03T02:05:44;102244.81;;;2.28;100.00
38718;BME280;24468;52.128;9.278;2023-04-03T02:08:10;102255.25;;;2.15;100.00
38718;BME280;24468;52.128;9.278;2023-04-03T02:10:36;102264.06;;;2.13;100.00
38718;BME280;24468;52.128;9.278;2023-04-03T02:13:02;102262.34;;;2.16;100.00
38718;BME280;24468;52.128;9.278;2023-04-03T02:15:28;102248.84;;;2.04;100.00
38718;BME280;24468;52.128;9.278;2023-04-03T02:17:54;102250.63;;;2.04;100.00
38718;BME280;24468;52.128;9.278;2023-04-03T02:20:19;102247.91;;;2.02;100.00
38718;BME280;24468;52.128;9.278;2023-04-03T02:22:45;102253.03;;;1.90;100.00
38718;BME280;24468;52.128;9.278;2023-04-03T02:25:11;102256.16;;;1.69;100.00
38718;BME280;24468;52.128;9.278;2023-04-03T02:27:37;102252.28;;;1.53;100.00
38718;BME280;24468;52.128;9.278;2023-04-03T02:30:03;102261.59;;;1.75;100.00
38718;BME280;24468;52.128;9.278;2023-04-03T02:32:29;102254.66;;;1.82;100.00
38718;BME280;24468;52.128;9.278;2023-04-03T02:34:55;102261.88;;;1.45;100.00
38718;BME280;24468;52.128;9.278;2023-04-03T02:37:21;102255.78;;;1.50;100.00
38718;BME280;24468;52.128;9.278;2023-04-03T02:39:47;102256.88;;;1.60;100.00
38718;BME280;24468;52.128;9.278;2023-04-03T02:42:13;102255.38;;;1.30;100.00
38718;BME280;24468;52.128;9.278;2023-04-03T02:44:38;102262.03;;;1.52;100.00
38718;BME280;24468;52.128;9.278;2023-04-03T02:47:04;102262.03;;;1.51;100.00
38718;BME280;24468;52.128;9.278;2023-04-03T02:49:30;102260.31;;;1.56;100.00
38718;BME280;24468;52.128;9.278;2023-04-03T02:51:56;102269.25;;;1.58;100.00
38718;BME280;24468;52.128;9.278;2023-04-03T02:54:21;102272.81;;;1.59;100.00
38718;BME280;24468;52.128;9.278;2023-04-03T02:56:50;102271.47;;;1.37;100.00
38718;BME280;24468;52.128;9.278;2023-04-03T02:59:16;102269.84;;;1.43;100.00
38718;BME280;24468;52.128;9.278;2023-04-03T03:01:41;102278.44;;;1.31;100.00
38718;BME280;24468;52.128;9.278;2023-04-03T03:04:07;102274.16;;;1.38;100.00
38718;BME280;24468;52.128;9.278;2023-04-03T03:06:32;102277.41;;;1.25;100.00
38718;BME280;24468;52.128;9.278;2023-04-03T03:08:58;102268.06;;;1.44;100.00
38718;BME280;24468;52.128;9.278;2023-04-03T03:11:23;102281.91;;;1.27;100.00
38718;BME280;24468;52.128;9.278;2023-04-03T03:13:49;102278.44;;;1.31;100.00
38718;BME280;24468;52.128;9.278;2023-04-03T03:16:14;102272.69;;;1.52;100.00
38718;BME280;24468;52.128;9.278;2023-04-03T03:18:40;102286.97;;;1.58;100.00
38718;BME280;24468;52.128;9.278;2023-04-03T03:21:06;102282.09;;;1.35;100.00
38718;BME280;24468;52.128;9.278;2023-04-03T03:23:32;102286.41;;;1.31;100.00
38718;BME280;24468;52.128;9.278;2023-04-03T03:26:02;102295.84;;;1.17;100.00
38718;BME280;24468;52.128;9.278;2023-04-03T03:28:28;102296.16;;;1.29;100.00
38718;BME280;24468;52.128;9.278;2023-04-03T03:30:54;102297.66;;;1.18;100.00
38718;BME280;24468;52.128;9.278;2023-04-03T03:33:20;102301.94;;;1.11;100.00
38718;BME280;24468;52.128;9.278;2023-04-03T03:35:45;102297.63;;;1.17;100.00
38718;BME280;24468;52.128;9.278;2023-04-03T03:38:11;102303.59;;;1.46;100.00
38718;BME280;24468;52.128;9.278;2023-04-03T03:40:36;102292.53;;;1.27;100.00
38718;BME280;24468;52.128;9.278;2023-04-03T03:43:02;102296.84;;;1.21;100.00
38718;BME280;24468;52.128;9.278;2023-04-03T03:45:28;102295.13;;;1.24;100.00
38718;BME280;24468;52.128;9.278;2023-04-03T03:47:54;102284.22;;;1.12;100.00
38718;BME280;24468;52.128;9.278;2023-04-03T03:50:19;102284.28;;;1.15;100.00
38718;BME280;24468;52.128;9.278;2023-04-03T03:52:45;102291.59;;;1.24;100.00
38718;BME280;24468;52.128;9.278;2023-04-03T03:55:11;102292.13;;;1.07;100.00
38718;BME280;24468;52.128;9.278;2023-04-03T03:57:37;102299.03;;;1.40;100.00
38718;BME280;24468;52.128;9.278;2023-04-03T04:00:03;102289.94;;;1.29;100.00
38718;BME280;24468;52.128;9.278;2023-04-03T04:02:29;102292.59;;;1.30;100.00
38718;BME280;24468;52.128;9.278;2023-04-03T04:04:55;102297.94;;;1.30;100.00
38718;BME280;24468;52.128;9.278;2023-04-03T04:07:21;102305.25;;;1.01;100.00
38718;BME280;24468;52.128;9.278;2023-04-03T04:09:47;102298.34;;;1.09;100.00
38718;BME280;24468;52.128;9.278;2023-04-03T04:12:12;102306.34;;;0.73;100.00
38718;BME280;24468;52.128;9.278;2023-04-03T04:14:38;102296.28;;;0.96;100.00
38718;BME280;24468;52.128;9.278;2023-04-03T04:17:03;102300.16;;;1.10;100.00
38718;BME280;24468;52.128;9.278;2023-04-03T04:19:29;102301.00;;;1.09;100.00
38718;BME280;24468;52.128;9.278;2023-04-03T04:21:55;102298.50;;;1.17;100.00
38718;BME280;24468;52.128;9.278;2023-04-03T04:24:20;102306.22;;;1.05;100.00
38718;BME280;24468;52.128;9.278;2023-04-03T04:26:48;102304.72;;;1.16;100.00
38718;BME280;24468;52.128;9.278;2023-04-03T04:29:13;102307.38;;;1.16;100.00
38718;BME280;24468;52.128;9.278;2023-04-03T04:31:39;102307.06;;;1.04;100.00
38718;BME280;24468;52.128;9.278;2023-04-03T04:34:05;102309.19;;;1.19;100.00
38718;BME280;24468;52.128;9.278;2023-04-03T04:36:31;102309.25;;;1.22;100.00
38718;BME280;24468;52.128;9.278;2023-04-03T04:38:56;102312.50;;;1.08;100.00
38718;BME280;24468;52.128;9.278;2023-04-03T04:41:23;102319.16;;;0.89;100.00
38718;BME280;24468;52.128;9.278;2023-04-03T04:43:50;102321.03;;;0.95;100.00
38718;BME280;24468;52.128;9.278;2023-04-03T04:46:15;102327.03;;;0.86;100.00
38718;BME280;24468;52.128;9.278;2023-04-03T04:48:41;102323.75;;;0.97;100.00
38718;BME280;24468;52.128;9.278;2023-04-03T04:51:07;102333.69;;;1.05;100.00
38718;BME280;24468;52.128;9.278;2023-04-03T04:53:33;102325.84;;;1.10;100.00
38718;BME280;24468;52.128;9.278;2023-04-03T04:55:58;102325.91;;;1.13;100.00
38718;BME280;24468;52.128;9.278;2023-04-03T04:58:24;102340.28;;;1.21;100.00
38718;BME280;24468;52.128;9.278;2023-04-03T05:01:02;102336.69;;;1.19;100.00
38718;BME280;24468;52.128;9.278;2023-04-03T05:03:28;102335.72;;;1.17;100.00
38718;BME280;24468;52.128;9.278;2023-04-03T05:05:54;102334.00;;;1.19;100.00
38718;BME280;24468;52.128;9.278;2023-04-03T05:08:19;102339.41;;;1.22;100.00
38718;BME280;24468;52.128;9.278;2023-04-03T05:10:46;102345.53;;;1.20;100.00
38718;BME280;24468;52.128;9.278;2023-04-03T05:13:12;102345.72;;;1.27;100.00
38718;BME280;24468;52.128;9.278;2023-04-03T05:15:37;102334.31;;;1.33;100.00
38718;BME280;24468;52.128;9.278;2023-04-03T05:18:03;102335.16;;;1.30;100.00
38718;BME280;24468;52.128;9.278;2023-04-03T05:20:30;102335.50;;;1.46;100.00
38718;BME280;24468;52.128;9.278;2023-04-03T05:22:56;102339.16;;;1.51;100.00
38718;BME280;24468;52.128;9.278;2023-04-03T05:25:22;102338.75;;;1.34;100.00
38718;BME280;24468;52.128;9.278;2023-04-03T05:27:47;102345.13;;;1.41;100.00
38718;BME280;24468;52.128;9.278;2023-04-03T05:30:13;102346.44;;;1.20;100.00
38718;BME280;24468;52.128;9.278;2023-04-03T05:32:39;102339.84;;;1.03;100.00
38718;BME280;24468;52.128;9.278;2023-04-03T05:35:05;102350.16;;;1.27;100.00
38718;BME280;24468;52.128;9.278;2023-04-03T05:37:31;102346.91;;;1.42;100.00
38718;BME280;24468;52.128;9.278;2023-04-03T05:39:57;102351.69;;;1.17;100.00
38718;BME280;24468;52.128;9.278;2023-04-03T05:42:23;102352.31;;;1.07;100.00
38718;BME280;24468;52.128;9.278;2023-04-03T05:44:48;102355.00;;;1.46;100.00
38718;BME280;24468;52.128;9.278;2023-04-03T05:47:16;102359.31;;;1.41;100.00
38718;BME280;24468;52.128;9.278;2023-04-03T05:49:41;102357.84;;;1.54;100.00
38718;BME280;24468;52.128;9.278;2023-04-03T05:52:30;102365.25;;;1.69;100.00
38718;BME280;24468;52.128;9.278;2023-04-03T05:54:57;102364.34;;;1.27;100.00
38718;BME280;24468;52.128;9.278;2023-04-03T05:57:23;102369.56;;;1.64;100.00
38718;BME280;24468;52.128;9.278;2023-04-03T05:59:49;102368.97;;;1.77;100.00
38718;BME280;24468;52.128;9.278;2023-04-03T06:02:19;102372.81;;;1.49;100.00
38718;BME280;24468;52.128;9.278;2023-04-03T06:04:45;102366.34;;;1.78;100.00
38718;BME280;24468;52.128;9.278;2023-04-03T06:07:19;102371.28;;;1.60;100.00
38718;BME280;24468;52.128;9.278;2023-04-03T06:09:47;102384.16;;;1.81;100.00
38718;BME280;24468;52.128;9.278;2023-04-03T06:12:13;102387.53;;;1.75;100.00
38718;BME280;24468;52.128;9.278;2023-04-03T06:14:39;102392.09;;;1.80;100.00
38718;BME280;24468;52.128;9.278;2023-04-03T06:17:04;102391.22;;;1.81;100.00
38718;BME280;24468;52.128;9.278;2023-04-03T06:19:31;102393.22;;;1.91;100.00
38718;BME280;24468;52.128;9.278;2023-04-03T06:21:56;102398.03;;;2.10;100.00
38718;BME280;24468;52.128;9.278;2023-04-03T06:24:22;102404.47;;;2.21;100.00
38718;BME280;24468;52.128;9.278;2023-04-03T06:26:49;102399.81;;;2.10;100.00
38718;BME280;24468;52.128;9.278;2023-04-03T06:29:17;102398.03;;;2.10;100.00
38718;BME280;24468;52.128;9.278;2023-04-03T06:31:43;102407.47;;;2.38;100.00
38718;BME280;24468;52.128;9.278;2023-04-03T06:34:09;102401.19;;;2.35;100.00
38718;BME280;24468;52.128;9.278;2023-04-03T06:36:34;102406.41;;;2.29;100.00
38718;BME280;24468;52.128;9.278;2023-04-03T06:39:00;102407.03;;;2.15;100.00
38718;BME280;24468;52.128;9.278;2023-04-03T06:41:26;102411.56;;;2.19;100.00
38718;BME280;24468;52.128;9.278;2023-04-03T06:43:52;102409.78;;;2.20;100.00
38718;BME280;24468;52.128;9.278;2023-04-03T06:46:21;102410.31;;;2.48;100.00
38718;BME280;24468;52.128;9.278;2023-04-03T06:48:48;102422.28;;;2.24;100.00
38718;BME280;24468;52.128;9.278;2023-04-03T06:51:28;102421.56;;;2.33;100.00
38718;BME280;24468;52.128;9.278;2023-04-03T06:53:57;102430.59;;;2.41;100.00
38718;BME280;24468;52.128;9.278;2023-04-03T06:56:24;102439.28;;;1.87;100.00
38718;BME280;24468;52.128;9.278;2023-04-03T06:58:51;102433.53;;;2.09;100.00
38718;BME280;24468;52.128;9.278;2023-04-03T07:01:18;102439.19;;;2.26;100.00
38718;BME280;24468;52.128;9.278;2023-04-03T07:03:48;102438.25;;;2.22;100.00
38718;BME280;24468;52.128;9.278;2023-04-03T07:06:15;102433.25;;;1.97;100.00
38718;BME280;24468;52.128;9.278;2023-04-03T07:08:41;102437.81;;;2.03;100.00
38718;BME280;24468;52.128;9.278;2023-04-03T07:11:08;102437.72;;;1.98;100.00
38718;BME280;24468;52.128;9.278;2023-04-03T07:13:34;102438.19;;;2.19;100.00
38718;BME280;24468;52.128;9.278;2023-04-03T07:16:00;102434.97;;;2.37;100.00
38718;BME280;24468;52.128;9.278;2023-04-03T07:18:26;102444.69;;;2.34;100.00
38718;BME280;24468;52.128;9.278;2023-04-03T07:20:52;102453.72;;;2.42;100.00
38718;BME280;24468;52.128;9.278;2023-04-03T07:23:18;102456.81;;;2.63;100.00
38718;BME280;24468;52.128;9.278;2023-04-03T07:25:46;102456.88;;;2.66;100.00
38718;BME280;24468;52.128;9.278;2023-04-03T07:28:13;102461.28;;;2.66;100.00
38718;BME280;24468;52.128;9.278;2023-04-03T07:30:53;102456.97;;;2.74;100.00
38718;BME280;24468;52.128;9.278;2023-04-03T07:33:22;102465.53;;;2.56;100.00
38718;BME280;24468;52.128;9.278;2023-04-03T07:35:48;102461.47;;;2.75;100.00
38718;BME280;24468;52.128;9.278;2023-04-03T07:38:14;102458.34;;;2.52;100.00
38718;BME280;24468;52.128;9.278;2023-04-03T07:40:49;102473.56;;;3.06;100.00
38718;BME280;24468;52.128;9.278;2023-04-03T07:43:19;102460.72;;;3.36;100.00
38718;BME280;24468;52.128;9.278;2023-04-03T07:45:46;102466.78;;;3.24;100.00
38718;BME280;24468;52.128;9.278;2023-04-03T07:48:15;102460.78;;;3.39;100.00
38718;BME280;24468;52.128;9.278;2023-04-03T07:50:41;102464.59;;;3.54;100.00
38718;BME280;24468;52.128;9.278;2023-04-03T07:53:08;102463.88;;;3.66;100.00
38718;BME280;24468;52.128;9.278;2023-04-03T07:55:34;102461.22;;;3.68;100.00
38718;BME280;24468;52.128;9.278;2023-04-03T07:58:02;102459.06;;;3.44;100.00
38718;BME280;24468;52.128;9.278;2023-04-03T08:00:28;102464.63;;;3.58;100.00
38718;BME280;24468;52.128;9.278;2023-04-03T08:02:54;102470.47;;;3.93;100.00
38718;BME280;24468;52.128;9.278;2023-04-03T08:05:21;102469.56;;;3.91;100.00
38718;BME280;24468;52.128;9.278;2023-04-03T08:07:47;102472.34;;;4.00;100.00
38718;BME280;24468;52.128;9.278;2023-04-03T08:10:14;102467.34;;;4.28;100.00
38718;BME280;24468;52.128;9.278;2023-04-03T08:12:40;102472.16;;;3.85;100.00
38718;BME280;24468;52.128;9.278;2023-04-03T08:15:07;102464.25;;;3.92;100.00
38718;BME280;24468;52.128;9.278;2023-04-03T08:17:33;102466.66;;;4.42;100.00
38718;BME280;24468;52.128;9.278;2023-04-03T08:19:59;102471.19;;;4.48;100.00
38718;BME280;24468;52.128;9.278;2023-04-03T08:22:24;102467.31;;;4.24;100.00
38718;BME280;24468;52.128;9.278;2023-04-03T08:24:50;102457.63;;;4.31;100.00
38718;BME280;24468;52.128;9.278;2023-04-03T08:27:15;102459.97;;;4.08;100.00
38718;BME280;24468;52.128;9.278;2023-04-03T08:29:41;102465.59;;;4.30;100.00
38718;BME280;24468;52.128;9.278;2023-04-03T08:32:07;102459.47;;;4.37;100.00
38718;BME280;24468;52.128;9.278;2023-04-03T08:34:32;102464.25;;;4.68;100.00
38718;BME280;24468;52.128;9.278;2023-04-03T08:37:02;102460.66;;;4.65;100.00
38718;BME280;24468;52.128;9.278;2023-04-03T08:39:28;102451.28;;;5.07;100.00
38718;BME280;24468;52.128;9.278;2023-04-03T08:41:56;102461.78;;;4.85;100.00
38718;BME280;24468;52.128;9.278;2023-04-03T08:44:54;102461.47;;;4.58;100.00
38718;BME280;24468;52.128;9.278;2023-04-03T08:47:50;102459.41;;;5.16;100.00
38718;BME280;24468;52.128;9.278;2023-04-03T08:50:20;102456.91;;;5.42;97.97
38718;BME280;24468;52.128;9.278;2023-04-03T08:52:58;102453.50;;;5.63;96.45
38718;BME280;24468;52.128;9.278;2023-04-03T08:55:31;102445.72;;;5.98;96.17
38718;BME280;24468;52.128;9.278;2023-04-03T08:58:15;102451.81;;;5.77;91.68
38718;BME280;24468;52.128;9.278;2023-04-03T09:03:23;102449.34;;;6.13;92.19
38718;BME280;24468;52.128;9.278;2023-04-03T09:06:14;102456.50;;;6.18;88.00
38718;BME280;24468;52.128;9.278;2023-04-03T09:09:06;102452.47;;;5.44;90.58
38718;BME280;24468;52.128;9.278;2023-04-03T09:17:21;102450.81;;;5.62;94.60
38718;BME280;24468;52.128;9.278;2023-04-03T09:22:28;102449.47;;;5.04;92.96
38718;BME280;24468;52.128;9.278;2023-04-03T09:25:23;102447.19;;;5.52;93.56
38718;BME280;24468;52.128;9.278;2023-04-03T09:27:51;102445.44;;;5.62;93.91
38718;BME280;24468;52.128;9.278;2023-04-03T09:30:24;102434.97;;;6.00;88.38
38718;BME280;24468;52.128;9.278;2023-04-03T09:32:53;102442.06;;;5.90;86.95
38718;BME280;24468;52.128;9.278;2023-04-03T09:35:33;102436.56;;;5.69;88.03
38718;BME280;24468;52.128;9.278;2023-04-03T09:38:17;102437.25;;;5.37;84.53
38718;BME280;24468;52.128;9.278;2023-04-03T09:41:05;102441.09;;;5.77;84.72
38718;BME280;24468;52.128;9.278;2023-04-03T09:43:33;102433.97;;;5.79;79.43
38718;BME280;24468;52.128;9.278;2023-04-03T09:46:29;102430.94;;;5.27;82.68
38718;BME280;24468;52.128;9.278;2023-04-03T09:48:59;102424.84;;;5.47;80.81
38718;BME280;24468;52.128;9.278;2023-04-03T09:51:27;102431.44;;;6.03;73.55
38718;BME280;24468;52.128;9.278;2023-04-03T09:53:54;102427.81;;;5.97;71.63
38718;BME280;24468;52.128;9.278;2023-04-03T09:56:25;102419.69;;;5.84;72.13
38718;BME280;24468;52.128;9.278;2023-04-03T10:01:37;102412.72;;;6.16;69.80
38718;BME280;24468;52.128;9.278;2023-04-03T10:04:15;102416.13;;;5.83;67.31
38718;BME280;24468;52.128;9.278;2023-04-03T10:06:47;102409.16;;;6.19;73.32
38718;BME280;24468;52.128;9.278;2023-04-03T10:09:31;102409.28;;;6.59;71.28
38718;BME280;24468;52.128;9.278;2023-04-03T10:12:06;102406.56;;;6.40;68.83
38718;BME280;24468;52.128;9.278;2023-04-03T10:15:10;102402.97;;;6.37;72.40
38718;BME280;24468;52.128;9.278;2023-04-03T10:20:33;102397.53;;;6.14;72.91
38718;BME280;24468;52.128;9.278;2023-04-03T10:23:37;102398.38;;;5.96;70.82
38718;BME280;24468;52.128;9.278;2023-04-03T10:29:19;102391.44;;;6.96;67.89
38718;BME280;24468;52.128;9.278;2023-04-03T10:32:16;102395.00;;;7.23;65.95
38718;BME280;24468;52.128;9.278;2023-04-03T10:34:47;102381.44;;;7.83;64.47
38718;BME280;24468;52.128;9.278;2023-04-03T10:37:29;102377.66;;;8.31;63.23
38718;BME280;24468;52.128;9.278;2023-04-03T10:40:05;102369.66;;;8.16;61.67
38718;BME280;24468;52.128;9.278;2023-04-03T10:46:01;102377.88;;;7.82;59.39
38718;BME280;24468;52.128;9.278;2023-04-03T10:51:34;102385.19;;;6.94;59.07
38718;BME280;24468;52.128;9.278;2023-04-03T10:54:26;102389.66;;;6.92;59.95
38718;BME280;24468;52.128;9.278;2023-04-03T10:57:10;102375.31;;;7.31;59.97
38718;BME280;24468;52.128;9.278;2023-04-03T10:59:47;102369.94;;;6.42;58.02
38718;BME280;24468;52.128;9.278;2023-04-03T11:02:37;102369.09;;;6.83;57.06
38718;BME280;24468;52.128;9.278;2023-04-03T11:07:51;102360.84;;;7.78;53.92
38718;BME280;24468;52.128;9.278;2023-04-03T11:10:46;102358.88;;;8.19;52.72
38718;BME280;24468;52.128;9.278;2023-04-03T11:13:21;102354.38;;;8.26;52.68
38718;BME280;24468;52.128;9.278;2023-04-03T11:15:48;102354.50;;;7.98;53.69
38718;BME280;24468;52.128;9.278;2023-04-03T11:18:28;102357.41;;;7.38;53.76
38718;BME280;24468;52.128;9.278;2023-04-03T11:21:34;102354.66;;;7.53;53.51
38718;BME280;24468;52.128;9.278;2023-04-03T11:24:05;102342.78;;;8.08;54.47
38718;BME280;24468;52.128;9.278;2023-04-03T11:26:40;102345.56;;;7.90;54.78
38718;BME280;24468;52.128;9.278;2023-04-03T11:29:18;102352.97;;;7.11;54.47
38718;BME280;24468;52.128;9.278;2023-04-03T11:32:16;102343.03;;;7.54;53.88
38718;BME280;24468;52.128;9.278;2023-04-03T11:34:53;102332.25;;;7.59;53.82
38718;BME280;24468;52.128;9.278;2023-04-03T11:37:43;102324.09;;;7.84;54.98
38718;BME280;24468;52.128;9.278;2023-04-03T11:42:48;102332.34;;;7.21;54.08
38718;BME280;24468;52.128;9.278;2023-04-03T11:48:02;102326.13;;;8.88;51.71
38718;BME280;24468;52.128;9.278;2023-04-03T11:53:10;102315.06;;;8.05;50.40
38718;BME280;24468;52.128;9.278;2023-04-03T11:55:54;102315.84;;;8.22;51.10
38718;BME280;24468;52.128;9.278;2023-04-03T11:58:34;102321.09;;;8.43;51.24
38718;BME280;24468;52.128;9.278;2023-04-03T12:01:09;102328.78;;;7.25;51.23
38718;BME280;24468;52.128;9.278;2023-04-03T12:16:44;102308.22;;;7.15;49.84
38718;BME280;24468;52.128;9.278;2023-04-03T12:27:38;102305.88;;;8.42;48.03
38718;BME280;24468;52.128;9.278;2023-04-03T12:35:34;102283.97;;;8.85;48.10
38718;BME280;24468;52.128;9.278;2023-04-03T12:44:27;102270.78;;;10.12;49.23
38718;BME280;24468;52.128;9.278;2023-04-03T12:47:01;102269.59;;;9.68;47.71
38718;BME280;24468;52.128;9.278;2023-04-03T12:49:40;102258.28;;;10.64;47.15
38718;BME280;24468;52.128;9.278;2023-04-03T12:52:21;102267.59;;;10.46;46.24
38718;BME280;24468;52.128;9.278;2023-04-03T12:54:49;102258.84;;;10.32;45.94
38718;BME280;24468;52.128;9.278;2023-04-03T12:57:24;102261.34;;;9.08;46.20
38718;BME280;24468;52.128;9.278;2023-04-03T12:59:50;102254.41;;;9.63;47.45
38718;BME280;24468;52.128;9.278;2023-04-03T13:02:34;102255.03;;;9.10;47.42
38718;BME280;24468;52.128;9.278;2023-04-03T13:05:09;102250.50;;;9.14;47.95
38718;BME280;24468;52.128;9.278;2023-04-03T13:07:39;102250.59;;;9.08;47.97
38718;BME280;24468;52.128;9.278;2023-04-03T13:12:54;102251.00;;;8.63;48.26
38718;BME280;24468;52.128;9.278;2023-04-03T13:15:30;102242.78;;;8.79;48.14
38718;BME280;24468;52.128;9.278;2023-04-03T13:18:05;102243.66;;;8.82;49.04
38718;BME280;24468;52.128;9.278;2023-04-03T13:20:48;102236.34;;;8.94;48.65
38718;BME280;24468;52.128;9.278;2023-04-03T13:23:17;102245.03;;;8.26;48.42
38718;BME280;24468;52.128;9.278;2023-04-03T13:25:46;102239.81;;;9.06;48.89
38718;BME280;24468;52.128;9.278;2023-04-03T13:28:18;102237.22;;;9.71;47.58
38718;BME280;24468;52.128;9.278;2023-04-03T13:30:56;102234.00;;;9.42;48.50
38718;BME280;24468;52.128;9.278;2023-04-03T13:33:27;102231.63;;;9.16;47.58
38718;BME280;24468;52.128;9.278;2023-04-03T13:36:21;102222.78;;;9.06;47.40
38718;BME280;24468;52.128;9.278;2023-04-03T13:41:40;102233.00;;;8.68;48.59
38718;BME280;24468;52.128;9.278;2023-04-03T13:46:48;102222.97;;;8.87;47.33
38718;BME280;24468;52.128;9.278;2023-04-03T13:49:32;102218.06;;;8.32;48.27
38718;BME280;24468;52.128;9.278;2023-04-03T13:51:58;102208.25;;;9.18;47.48
38718;BME280;24468;52.128;9.278;2023-04-03T13:54:38;102202.56;;;8.65;46.69
38718;BME280;24468;52.128;9.278;2023-04-03T13:57:14;102207.41;;;8.23;47.75
38718;BME280;24468;52.128;9.278;2023-04-03T13:59:40;102205.84;;;7.87;48.74
38718;BME280;24468;52.128;9.278;2023-04-03T14:02:21;102203.28;;;7.71;49.25
38718;BME280;24468;52.128;9.278;2023-04-03T14:04:55;102209.56;;;7.64;49.78
38718;BME280;24468;52.128;9.278;2023-04-03T14:07:24;102205.00;;;7.83;48.89
38718;BME280;24468;52.128;9.278;2023-04-03T14:09:50;102205.06;;;7.71;49.35
38718;BME280;24468;52.128;9.278;2023-04-03T14:12:36;102210.19;;;8.08;49.29
38718;BME280;24468;52.128;9.278;2023-04-03T14:15:20;102211.13;;;8.00;48.63
38718;BME280;24468;52.128;9.278;2023-04-03T14:17:49;102198.41;;;8.24;48.32
38718;BME280;24468;52.128;9.278;2023-04-03T14:20:21;102204.50;;;8.49;46.64
38718;BME280;24468;52.128;9.278;2023-04-03T14:22:47;102195.00;;;9.01;45.94
38718;BME280;24468;52.128;9.278;2023-04-03T14:25:15;102188.38;;;8.51;45.47
38718;BME280;24468;52.128;9.278;2023-04-03T14:27:44;102173.50;;;8.98;45.29
38718;BME280;24468;52.128;9.278;2023-04-03T14:30:24;102182.75;;;10.08;44.00
38718;BME280;24468;52.128;9.278;2023-04-03T14:32:50;102179.31;;;9.38;44.65